createdAt,value
2022-11-15T00:02:58.193Z,3.50
2022-11-15T00:08:00.232Z,3.60
2022-11-15T00:13:06.178Z,3.60
2022-11-15T00:18:14.432Z,3.60
2022-11-15T00:23:16.247Z,3.60
2022-11-15T00:28:18.090Z,3.60
2022-11-15T00:33:20.056Z,3.60
2022-11-15T00:38:21.988Z,3.60
2022-11-15T00:43:23.927Z,3.70
2022-11-15T00:48:25.798Z,3.70
2022-11-15T00:53:27.813Z,3.70
2022-11-15T00:58:29.832Z,3.70
2022-11-15T01:03:34.250Z,3.70
2022-11-15T01:08:36.740Z,3.70
2022-11-15T01:13:39.769Z,3.70
2022-11-15T01:18:42.502Z,3.80
2022-11-15T01:23:45.720Z,3.80
2022-11-15T01:28:47.643Z,3.80
2022-11-15T01:33:50.118Z,3.80
2022-11-15T01:38:56.947Z,3.80
2022-11-15T01:44:45.137Z,3.80
2022-11-15T01:49:59.117Z,3.80
2022-11-15T01:55:13.272Z,3.80
2022-11-15T02:00:16.092Z,3.80
2022-11-15T02:05:17.973Z,3.80
2022-11-15T02:10:22.985Z,3.90
2022-11-15T02:15:32.613Z,3.80
2022-11-15T02:21:13.521Z,3.80
2022-11-15T02:26:21.476Z,3.90
2022-11-15T02:31:26.366Z,3.80
2022-11-15T02:36:28.393Z,3.80
2022-11-15T02:41:48.296Z,3.90
2022-11-15T02:47:13.844Z,3.90
2022-11-15T02:52:17.209Z,3.90
2022-11-15T02:57:23.577Z,3.90
2022-11-15T03:02:51.542Z,3.90
2022-11-15T03:08:03.613Z,3.90
2022-11-15T03:13:23.547Z,3.90
2022-11-15T03:18:34.877Z,3.90
2022-11-15T03:23:39.301Z,3.90
2022-11-15T03:29:02.205Z,3.90
2022-11-15T03:34:08.102Z,3.90
2022-11-15T03:39:10.179Z,3.90
2022-11-15T03:44:27.093Z,3.90
2022-11-15T03:49:35.453Z,3.90
2022-11-15T03:54:37.443Z,3.90
2022-11-15T03:59:39.324Z,4.00
2022-11-15T04:04:41.468Z,3.90
2022-11-15T04:10:01.726Z,4.00
2022-11-15T04:15:08.550Z,4.00
2022-11-15T04:20:33.734Z,4.00
2022-11-15T04:25:35.561Z,4.00
2022-11-15T04:30:37.589Z,4.00
2022-11-15T04:35:39.966Z,4.00
2022-11-15T04:40:41.855Z,4.00
2022-11-15T04:45:43.817Z,4.10
2022-11-15T04:50:45.740Z,4.10
2022-11-15T04:55:47.894Z,4.10
2022-11-15T05:00:49.715Z,4.20
2022-11-15T05:05:51.715Z,4.20
2022-11-15T05:10:53.812Z,4.20
2022-11-15T05:15:55.596Z,4.20
2022-11-15T05:20:57.435Z,4.20
2022-11-15T05:26:08.868Z,4.30
2022-11-15T05:31:15.791Z,4.30
2022-11-15T05:36:32.238Z,4.30
2022-11-15T05:41:42.551Z,4.30
2022-11-15T05:46:45.019Z,4.30
2022-11-15T05:51:49.390Z,4.30
2022-11-15T05:56:51.355Z,4.30
2022-11-15T06:01:53.171Z,4.30
2022-11-15T06:06:55.050Z,4.30
2022-11-15T06:11:56.985Z,4.40
2022-11-15T06:16:58.787Z,4.40
2022-11-15T06:22:01.024Z,4.40
2022-11-15T06:27:03.001Z,4.40
2022-11-15T06:32:05.421Z,4.40
2022-11-15T06:37:07.316Z,4.40
2022-11-15T06:42:12.281Z,4.50
2022-11-15T06:47:14.214Z,4.50
2022-11-15T06:52:16.202Z,4.50
2022-11-15T06:57:18.116Z,4.50
2022-11-15T07:02:20.025Z,4.60
2022-11-15T07:07:22.033Z,4.60
2022-11-15T07:12:24.017Z,4.60
2022-11-15T07:17:25.988Z,4.70
2022-11-15T07:22:27.913Z,4.80
2022-11-15T07:27:29.875Z,4.90
2022-11-15T07:32:32.120Z,4.90
2022-11-15T07:37:33.858Z,4.90
2022-11-15T07:42:53.720Z,4.90
2022-11-15T07:47:56.954Z,5.00
2022-11-15T07:53:00.733Z,5.00
2022-11-15T07:58:07.922Z,5.10
2022-11-15T08:03:15.187Z,5.10
2022-11-15T08:08:17.223Z,5.10
2022-11-15T08:13:19.427Z,5.20
2022-11-15T08:18:21.232Z,5.20
2022-11-15T08:23:23.013Z,5.40
2022-11-15T08:28:24.981Z,5.30
2022-11-15T08:33:26.958Z,5.20
2022-11-15T08:38:32.436Z,5.30
2022-11-15T08:43:35.057Z,5.40
2022-11-15T08:48:37.075Z,5.40
2022-11-15T08:53:38.891Z,5.60
2022-11-15T08:58:41.086Z,5.70
2022-11-15T09:03:42.976Z,5.80
2022-11-15T09:08:48.640Z,5.80
2022-11-15T09:13:50.949Z,5.90
2022-11-15T09:18:54.630Z,5.80
2022-11-15T09:23:56.526Z,5.80
2022-11-15T09:28:58.494Z,5.90
2022-11-15T09:34:00.318Z,6.00
2022-11-15T09:39:02.224Z,6.00
2022-11-15T09:44:19.945Z,6.10
2022-11-15T09:49:26.960Z,6.10
2022-11-15T10:05:47.155Z,6.60
2022-11-15T10:11:15.938Z,6.60
2022-11-15T10:16:59.244Z,6.60
2022-11-15T10:22:30.991Z,6.70
2022-11-15T10:27:33.488Z,6.60
2022-11-15T10:32:37.349Z,6.70
2022-11-15T10:37:39.370Z,6.90
2022-11-15T10:42:41.125Z,7.00
2022-11-15T10:47:42.899Z,7.10
2022-11-15T10:52:47.801Z,7.20
2022-11-15T10:57:53.262Z,7.40
2022-11-15T11:03:01.592Z,7.50
2022-11-15T11:08:25.390Z,7.60
2022-11-15T11:13:34.504Z,7.80
2022-11-15T11:19:06.763Z,8.00
2022-11-15T11:24:30.746Z,8.20
2022-11-15T11:29:52.489Z,8.40
2022-11-15T11:35:19.469Z,8.00
2022-11-15T11:40:30.151Z,7.80
2022-11-15T11:45:37.715Z,7.90
2022-11-15T11:50:41.518Z,7.80
2022-11-15T11:55:52.838Z,7.60
2022-11-15T12:01:36.562Z,7.70
2022-11-15T12:06:54.486Z,7.60
2022-11-15T12:12:03.949Z,7.50
2022-11-15T12:17:06.038Z,7.40
2022-11-15T12:22:22.746Z,7.40
2022-11-15T12:27:43.626Z,7.40
2022-11-15T12:32:55.831Z,7.40
2022-11-15T12:37:58.202Z,7.30
2022-11-15T12:42:59.910Z,7.20
2022-11-15T12:48:17.014Z,7.20
2022-11-15T12:53:25.172Z,7.10
2022-11-15T12:58:49.480Z,7.10
2022-11-15T13:04:28.144Z,7.10
2022-11-15T13:09:38.657Z,6.90
2022-11-15T13:14:53.580Z,6.70
2022-11-15T13:19:56.183Z,6.70
2022-11-15T13:25:01.889Z,6.60
2022-11-15T13:30:05.630Z,6.60
2022-11-15T13:35:08.238Z,6.50
2022-11-15T13:40:33.796Z,6.40
2022-11-15T13:45:35.749Z,6.30
2022-11-15T13:50:40.075Z,6.20
2022-11-15T13:55:42.852Z,6.30
2022-11-15T14:00:46.487Z,6.20
2022-11-15T14:06:08.598Z,6.10
2022-11-15T14:11:19.217Z,6.10
2022-11-15T14:16:22.430Z,6.00
2022-11-15T14:21:24.303Z,6.00
2022-11-15T14:26:35.154Z,5.90
2022-11-15T14:31:41.114Z,5.90
2022-11-15T14:36:45.577Z,5.90
2022-11-15T14:41:47.426Z,5.90
2022-11-15T14:46:49.638Z,6.00
2022-11-15T14:51:51.378Z,6.10
2022-11-15T14:56:53.174Z,6.10
2022-11-15T15:01:55.079Z,6.10
2022-11-15T15:06:56.929Z,6.10
2022-11-15T15:12:01.995Z,6.20
2022-11-15T15:17:06.761Z,6.00
2022-11-15T15:22:17.042Z,6.00
2022-11-15T15:27:18.887Z,6.10
2022-11-15T15:32:20.761Z,6.10
2022-11-15T15:37:27.278Z,6.00
2022-11-15T15:42:29.065Z,6.00
2022-11-15T15:47:31.357Z,5.80
2022-11-15T15:52:33.440Z,5.70
2022-11-15T15:57:35.408Z,5.50
2022-11-15T16:02:40.416Z,5.30
2022-11-15T16:07:44.515Z,5.40
2022-11-15T16:12:46.612Z,5.50
2022-11-15T16:17:54.221Z,5.50
2022-11-15T16:22:56.059Z,5.60
2022-11-15T16:27:57.964Z,5.70
2022-11-15T16:32:59.939Z,5.80
2022-11-15T16:38:01.799Z,5.70
2022-11-15T16:43:04.564Z,5.40
2022-11-15T16:48:06.604Z,5.20
2022-11-15T16:53:08.418Z,5.10
2022-11-15T16:58:10.821Z,5.00
2022-11-15T17:03:12.562Z,5.00
2022-11-15T17:08:14.478Z,4.80
2022-11-15T17:13:16.318Z,4.60
2022-11-15T17:18:18.139Z,4.60
2022-11-15T17:23:19.947Z,4.50
2022-11-15T17:28:21.730Z,4.50
2022-11-15T17:33:23.726Z,4.50
2022-11-15T17:38:26.061Z,4.50
2022-11-15T17:43:28.182Z,4.40
2022-11-15T17:48:31.103Z,4.40
2022-11-15T17:53:39.073Z,4.30
2022-11-15T17:58:41.579Z,4.30
2022-11-15T18:03:43.669Z,4.30
2022-11-15T18:08:47.606Z,4.30
2022-11-15T18:13:52.657Z,4.20
2022-11-15T18:18:55.259Z,4.10
2022-11-15T18:23:59.585Z,4.20
2022-11-15T18:29:04.951Z,4.10
2022-11-15T18:34:06.905Z,4.10
2022-11-15T18:39:16.481Z,4.10
2022-11-15T18:44:18.806Z,3.90
2022-11-15T18:49:21.014Z,3.90
2022-11-15T18:54:28.133Z,3.90
2022-11-15T18:59:32.795Z,4.00
2022-11-15T19:04:34.551Z,4.00
2022-11-15T19:09:36.295Z,4.00
2022-11-15T19:14:38.038Z,4.00
2022-11-15T19:19:39.847Z,3.90
2022-11-15T19:24:41.824Z,3.90
2022-11-15T19:29:43.568Z,3.80
2022-11-15T19:34:45.315Z,3.70
2022-11-15T19:39:47.087Z,3.80
2022-11-15T19:44:48.918Z,3.70
2022-11-15T19:49:50.698Z,3.70
2022-11-15T19:54:52.538Z,3.70
2022-11-15T19:59:54.396Z,3.60
2022-11-15T20:04:56.293Z,3.50
2022-11-15T20:09:58.174Z,3.70
2022-11-15T20:14:59.907Z,3.70
2022-11-15T20:20:01.685Z,3.80
2022-11-15T20:25:03.821Z,3.70
2022-11-15T20:30:06.167Z,3.70
2022-11-15T20:35:08.261Z,3.70
2022-11-15T20:40:10.684Z,3.70
2022-11-15T20:45:13.398Z,3.70
2022-11-15T20:50:41.146Z,3.60
2022-11-15T20:55:41.420Z,3.60
2022-11-15T21:00:44.772Z,3.60
2022-11-15T21:05:46.691Z,3.60
2022-11-15T21:11:12.063Z,3.60
2022-11-15T21:16:14.020Z,3.70
2022-11-15T21:21:15.909Z,3.70
2022-11-15T21:26:17.749Z,3.70
2022-11-15T21:31:19.514Z,3.70
2022-11-15T21:36:21.715Z,3.60
2022-11-15T21:41:23.730Z,3.40
2022-11-15T21:46:25.699Z,3.20
2022-11-15T21:51:27.531Z,2.90
2022-11-15T21:56:29.730Z,3.00
2022-11-15T22:01:50.127Z,3.10
2022-11-15T22:06:52.089Z,3.20
2022-11-15T22:11:53.962Z,3.20
2022-11-15T22:16:55.882Z,3.30
2022-11-15T22:21:57.776Z,3.30
2022-11-15T22:26:59.651Z,3.20
2022-11-15T22:32:01.742Z,3.10
2022-11-15T22:37:19.790Z,2.90
2022-11-15T22:42:24.065Z,2.90
2022-11-15T22:47:26.333Z,2.80
2022-11-15T22:52:28.256Z,2.90
2022-11-15T22:57:30.165Z,2.90
2022-11-15T23:02:32.081Z,3.00
2022-11-15T23:07:34.374Z,3.10
2022-11-15T23:12:54.965Z,3.10
2022-11-15T23:17:56.742Z,3.10
2022-11-15T23:22:59.434Z,3.10
2022-11-15T23:28:05.208Z,3.10
2022-11-15T23:33:25.426Z,3.00
2022-11-15T23:38:27.359Z,3.00
2022-11-15T23:43:29.211Z,3.10
2022-11-15T23:48:31.413Z,3.10
2022-11-15T23:53:33.427Z,3.10
2022-11-15T23:58:35.765Z,3.10
